sensor_id;sensor_type;location;lat;lon;timestamp;P1;durP1;ratioP1;P2;durP2;ratioP2
37931;SDS011;23758;42.640;23.302;2023-06-10T00:02:20;2.53;;;2.33;;
37931;SDS011;23758;42.640;23.302;2023-06-10T00:04:45;2.40;;;2.30;;
37931;SDS011;23758;42.640;23.302;2023-06-10T00:07:12;2.40;;;2.30;;
37931;SDS011;23758;42.640;23.302;2023-06-10T00:09:38;2.55;;;2.35;;
37931;SDS011;23758;42.640;23.302;2023-06-10T00:12:04;2.60;;;2.40;;
37931;SDS011;23758;42.640;23.302;2023-06-10T00:14:31;2.60;;;2.40;;
37931;SDS011;23758;42.640;23.302;2023-06-10T00:16:57;2.60;;;2.40;;
37931;SDS011;23758;42.640;23.302;2023-06-10T00:19:23;2.60;;;2.40;;
37931;SDS011;23758;42.640;23.302;2023-06-10T00:21:50;2.70;;;2.50;;
37931;SDS011;23758;42.640;23.302;2023-06-10T00:24:17;2.70;;;2.50;;
37931;SDS011;23758;42.640;23.302;2023-06-10T00:26:43;2.50;;;2.40;;
37931;SDS011;23758;42.640;23.302;2023-06-10T00:29:09;2.45;;;2.33;;
37931;SDS011;23758;42.640;23.302;2023-06-10T00:31:35;4.72;;;3.55;;
37931;SDS011;23758;42.640;23.302;2023-06-10T00:34:01;2.78;;;2.58;;
37931;SDS011;23758;42.640;23.302;2023-06-10T00:36:27;2.40;;;2.20;;
37931;SDS011;23758;42.640;23.302;2023-06-10T00:38:53;2.20;;;2.10;;
37931;SDS011;23758;42.640;23.302;2023-06-10T00:41:18;2.40;;;2.30;;
37931;SDS011;23758;42.640;23.302;2023-06-10T00:43:44;2.60;;;2.40;;
37931;SDS011;23758;42.640;23.302;2023-06-10T00:46:11;2.30;;;2.20;;
37931;SDS011;23758;42.640;23.302;2023-06-10T00:48:37;2.55;;;2.35;;
37931;SDS011;23758;42.640;23.302;2023-06-10T00:51:03;2.78;;;2.58;;
37931;SDS011;23758;42.640;23.302;2023-06-10T00:53:30;2.60;;;2.40;;
37931;SDS011;23758;42.640;23.302;2023-06-10T00:55:55;2.70;;;2.50;;
37931;SDS011;23758;42.640;23.302;2023-06-10T00:58:21;2.60;;;2.40;;
37931;SDS011;23758;42.640;23.302;2023-06-10T01:00:47;2.40;;;2.30;;
37931;SDS011;23758;42.640;23.302;2023-06-10T01:03:14;2.55;;;2.35;;
37931;SDS011;23758;42.640;23.302;2023-06-10T01:05:42;2.70;;;2.50;;
37931;SDS011;23758;42.640;23.302;2023-06-10T01:10:54;2.60;;;2.40;;
37931;SDS011;23758;42.640;23.302;2023-06-10T01:13:23;2.60;;;2.40;;
37931;SDS011;23758;42.640;23.302;2023-06-10T01:15:53;2.50;;;2.30;;
37931;SDS011;23758;42.640;23.302;2023-06-10T01:18:19;2.78;;;2.58;;
37931;SDS011;23758;42.640;23.302;2023-06-10T01:20:46;2.63;;;2.45;;
37931;SDS011;23758;42.640;23.302;2023-06-10T01:23:13;2.30;;;2.20;;
37931;SDS011;23758;42.640;23.302;2023-06-10T01:25:41;2.80;;;2.60;;
37931;SDS011;23758;42.640;23.302;2023-06-10T01:28:13;2.40;;;2.30;;
37931;SDS011;23758;42.640;23.302;2023-06-10T01:30:44;2.85;;;2.65;;
37931;SDS011;23758;42.640;23.302;2023-06-10T01:33:25;3.05;;;2.60;;
37931;SDS011;23758;42.640;23.302;2023-06-10T01:35:52;2.50;;;2.40;;
37931;SDS011;23758;42.640;23.302;2023-06-10T01:38:18;2.53;;;2.33;;
37931;SDS011;23758;42.640;23.302;2023-06-10T01:40:44;2.70;;;2.50;;
37931;SDS011;23758;42.640;23.302;2023-06-10T01:43:11;2.80;;;2.60;;
37931;SDS011;23758;42.640;23.302;2023-06-10T01:45:36;2.70;;;2.50;;
37931;SDS011;23758;42.640;23.302;2023-06-10T01:48:02;2.80;;;2.60;;
37931;SDS011;23758;42.640;23.302;2023-06-10T01:50:27;2.63;;;2.42;;
37931;SDS011;23758;42.640;23.302;2023-06-10T01:52:53;2.60;;;2.40;;
37931;SDS011;23758;42.640;23.302;2023-06-10T01:55:18;2.78;;;2.58;;
37931;SDS011;23758;42.640;23.302;2023-06-10T01:57:44;2.70;;;2.50;;
37931;SDS011;23758;42.640;23.302;2023-06-10T02:00:10;2.55;;;2.40;;
37931;SDS011;23758;42.640;23.302;2023-06-10T02:02:35;2.50;;;2.40;;
37931;SDS011;23758;42.640;23.302;2023-06-10T02:05:01;2.80;;;2.60;;
37931;SDS011;23758;42.640;23.302;2023-06-10T02:07:26;2.33;;;2.22;;
37931;SDS011;23758;42.640;23.302;2023-06-10T02:09:52;3.00;;;2.80;;
37931;SDS011;23758;42.640;23.302;2023-06-10T02:12:17;2.45;;;2.28;;
37931;SDS011;23758;42.640;23.302;2023-06-10T02:14:43;2.20;;;2.10;;
37931;SDS011;23758;42.640;23.302;2023-06-10T02:17:08;2.58;;;2.38;;
37931;SDS011;23758;42.640;23.302;2023-06-10T02:19:37;2.35;;;2.25;;
37931;SDS011;23758;42.640;23.302;2023-06-10T02:22:07;2.70;;;2.50;;
37931;SDS011;23758;42.640;23.302;2023-06-10T02:24:33;2.55;;;2.40;;
37931;SDS011;23758;42.640;23.302;2023-06-10T02:26:59;2.72;;;2.53;;
37931;SDS011;23758;42.640;23.302;2023-06-10T02:29:25;2.70;;;2.50;;
37931;SDS011;23758;42.640;23.302;2023-06-10T02:31:51;2.30;;;2.20;;
37931;SDS011;23758;42.640;23.302;2023-06-10T02:34:18;2.80;;;2.60;;
37931;SDS011;23758;42.640;23.302;2023-06-10T02:36:43;2.50;;;2.40;;
37931;SDS011;23758;42.640;23.302;2023-06-10T02:39:09;2.80;;;2.60;;
37931;SDS011;23758;42.640;23.302;2023-06-10T02:41:34;2.85;;;2.65;;
37931;SDS011;23758;42.640;23.302;2023-06-10T02:44:00;2.40;;;2.30;;
37931;SDS011;23758;42.640;23.302;2023-06-10T02:46:26;2.55;;;2.40;;
37931;SDS011;23758;42.640;23.302;2023-06-10T02:48:53;2.53;;;2.40;;
37931;SDS011;23758;42.640;23.302;2023-06-10T02:51:19;2.60;;;2.40;;
37931;SDS011;23758;42.640;23.302;2023-06-10T02:53:45;2.58;;;2.40;;
37931;SDS011;23758;42.640;23.302;2023-06-10T02:56:11;2.92;;;2.72;;
37931;SDS011;23758;42.640;23.302;2023-06-10T02:58:37;2.50;;;2.40;;
37931;SDS011;23758;42.640;23.302;2023-06-10T03:01:03;2.60;;;2.40;;
37931;SDS011;23758;42.640;23.302;2023-06-10T03:03:28;2.28;;;2.17;;
37931;SDS011;23758;42.640;23.302;2023-06-10T03:05:55;2.42;;;2.33;;
37931;SDS011;23758;42.640;23.302;2023-06-10T03:08:21;2.58;;;2.40;;
37931;SDS011;23758;42.640;23.302;2023-06-10T03:10:47;2.67;;;2.47;;
37931;SDS011;23758;42.640;23.302;2023-06-10T03:13:12;2.60;;;2.40;;
37931;SDS011;23758;42.640;23.302;2023-06-10T03:15:39;2.58;;;2.40;;
37931;SDS011;23758;42.640;23.302;2023-06-10T03:18:06;2.67;;;2.47;;
37931;SDS011;23758;42.640;23.302;2023-06-10T03:20:32;2.70;;;2.50;;
37931;SDS011;23758;42.640;23.302;2023-06-10T03:23:01;3.05;;;2.70;;
37931;SDS011;23758;42.640;23.302;2023-06-10T03:25:27;2.55;;;2.38;;
37931;SDS011;23758;42.640;23.302;2023-06-10T03:27:53;2.33;;;2.22;;
37931;SDS011;23758;42.640;23.302;2023-06-10T03:30:19;2.83;;;2.63;;
37931;SDS011;23758;42.640;23.302;2023-06-10T03:32:44;2.55;;;2.40;;
37931;SDS011;23758;42.640;23.302;2023-06-10T03:35:10;2.40;;;2.30;;
37931;SDS011;23758;42.640;23.302;2023-06-10T03:37:36;2.30;;;2.20;;
37931;SDS011;23758;42.640;23.302;2023-06-10T03:40:02;2.35;;;2.22;;
37931;SDS011;23758;42.640;23.302;2023-06-10T03:42:28;2.60;;;2.40;;
37931;SDS011;23758;42.640;23.302;2023-06-10T03:44:54;2.70;;;2.50;;
37931;SDS011;23758;42.640;23.302;2023-06-10T03:47:20;2.50;;;2.40;;
37931;SDS011;23758;42.640;23.302;2023-06-10T03:49:46;2.88;;;2.67;;
37931;SDS011;23758;42.640;23.302;2023-06-10T03:52:11;3.00;;;2.70;;
37931;SDS011;23758;42.640;23.302;2023-06-10T03:54:37;2.83;;;2.55;;
37931;SDS011;23758;42.640;23.302;2023-06-10T03:57:02;2.70;;;2.50;;
37931;SDS011;23758;42.640;23.302;2023-06-10T03:59:28;2.60;;;2.40;;
37931;SDS011;23758;42.640;23.302;2023-06-10T04:01:54;2.80;;;2.60;;
37931;SDS011;23758;42.640;23.302;2023-06-10T04:04:19;2.78;;;2.58;;
37931;SDS011;23758;42.640;23.302;2023-06-10T04:06:45;2.60;;;2.40;;
37931;SDS011;23758;42.640;23.302;2023-06-10T04:09:11;2.97;;;2.78;;
37931;SDS011;23758;42.640;23.302;2023-06-10T04:11:36;2.63;;;2.42;;
37931;SDS011;23758;42.640;23.302;2023-06-10T04:14:02;2.60;;;2.42;;
37931;SDS011;23758;42.640;23.302;2023-06-10T04:16:28;2.70;;;2.50;;
37931;SDS011;23758;42.640;23.302;2023-06-10T04:18:53;2.72;;;2.53;;
37931;SDS011;23758;42.640;23.302;2023-06-10T04:21:19;2.42;;;2.33;;
37931;SDS011;23758;42.640;23.302;2023-06-10T04:23:45;2.78;;;2.58;;
37931;SDS011;23758;42.640;23.302;2023-06-10T04:26:10;2.40;;;2.30;;
37931;SDS011;23758;42.640;23.302;2023-06-10T04:28:37;2.40;;;2.28;;
37931;SDS011;23758;42.640;23.302;2023-06-10T04:31:03;2.63;;;2.42;;
37931;SDS011;23758;42.640;23.302;2023-06-10T04:33:29;2.60;;;2.40;;
37931;SDS011;23758;42.640;23.302;2023-06-10T04:35:55;2.13;;;2.03;;
37931;SDS011;23758;42.640;23.302;2023-06-10T04:38:20;2.40;;;2.30;;
37931;SDS011;23758;42.640;23.302;2023-06-10T04:40:46;2.22;;;2.13;;
37931;SDS011;23758;42.640;23.302;2023-06-10T04:43:11;2.30;;;2.20;;
37931;SDS011;23758;42.640;23.302;2023-06-10T04:45:38;2.20;;;2.05;;
37931;SDS011;23758;42.640;23.302;2023-06-10T04:48:03;2.10;;;2.00;;
37931;SDS011;23758;42.640;23.302;2023-06-10T04:50:29;2.40;;;2.30;;
37931;SDS011;23758;42.640;23.302;2023-06-10T04:52:54;2.60;;;2.40;;
37931;SDS011;23758;42.640;23.302;2023-06-10T04:55:22;2.38;;;2.28;;
37931;SDS011;23758;42.640;23.302;2023-06-10T04:57:48;2.25;;;2.15;;
37931;SDS011;23758;42.640;23.302;2023-06-10T05:00:13;2.20;;;2.10;;
37931;SDS011;23758;42.640;23.302;2023-06-10T05:02:39;2.30;;;2.20;;
37931;SDS011;23758;42.640;23.302;2023-06-10T05:05:04;2.30;;;2.20;;
37931;SDS011;23758;42.640;23.302;2023-06-10T05:07:31;2.40;;;2.30;;
37931;SDS011;23758;42.640;23.302;2023-06-10T05:09:56;2.42;;;2.33;;
37931;SDS011;23758;42.640;23.302;2023-06-10T05:12:22;2.67;;;2.47;;
37931;SDS011;23758;42.640;23.302;2023-06-10T05:14:47;2.60;;;2.40;;
37931;SDS011;23758;42.640;23.302;2023-06-10T05:17:13;2.80;;;2.60;;
37931;SDS011;23758;42.640;23.302;2023-06-10T05:19:38;2.40;;;2.20;;
37931;SDS011;23758;42.640;23.302;2023-06-10T05:22:04;3.22;;;2.47;;
37931;SDS011;23758;42.640;23.302;2023-06-10T05:24:29;2.55;;;2.35;;
37931;SDS011;23758;42.640;23.302;2023-06-10T05:26:55;2.38;;;2.28;;
37931;SDS011;23758;42.640;23.302;2023-06-10T05:29:20;2.30;;;2.20;;
37931;SDS011;23758;42.640;23.302;2023-06-10T05:31:46;2.30;;;2.20;;
37931;SDS011;23758;42.640;23.302;2023-06-10T05:34:11;2.30;;;2.20;;
37931;SDS011;23758;42.640;23.302;2023-06-10T05:36:37;2.40;;;2.20;;
37931;SDS011;23758;42.640;23.302;2023-06-10T05:39:02;2.78;;;2.58;;
37931;SDS011;23758;42.640;23.302;2023-06-10T05:41:28;2.65;;;2.45;;
37931;SDS011;23758;42.640;23.302;2023-06-10T05:43:53;2.30;;;2.20;;
37931;SDS011;23758;42.640;23.302;2023-06-10T05:46:19;2.40;;;2.25;;
37931;SDS011;23758;42.640;23.302;2023-06-10T05:48:45;3.13;;;2.83;;
37931;SDS011;23758;42.640;23.302;2023-06-10T05:51:10;2.47;;;2.30;;
37931;SDS011;23758;42.640;23.302;2023-06-10T05:53:36;2.47;;;2.35;;
37931;SDS011;23758;42.640;23.302;2023-06-10T05:56:01;2.10;;;2.00;;
37931;SDS011;23758;42.640;23.302;2023-06-10T05:58:27;2.10;;;2.00;;
37931;SDS011;23758;42.640;23.302;2023-06-10T06:00:52;2.25;;;2.05;;
37931;SDS011;23758;42.640;23.302;2023-06-10T06:03:18;2.47;;;2.28;;
37931;SDS011;23758;42.640;23.302;2023-06-10T06:05:43;2.20;;;2.10;;
37931;SDS011;23758;42.640;23.302;2023-06-10T06:08:09;2.10;;;2.00;;
37931;SDS011;23758;42.640;23.302;2023-06-10T06:10:35;2.05;;;1.95;;
37931;SDS011;23758;42.640;23.302;2023-06-10T06:13:00;2.67;;;2.47;;
37931;SDS011;23758;42.640;23.302;2023-06-10T06:15:26;2.20;;;2.10;;
37931;SDS011;23758;42.640;23.302;2023-06-10T06:17:52;2.58;;;2.38;;
37931;SDS011;23758;42.640;23.302;2023-06-10T06:20:18;2.33;;;2.20;;
37931;SDS011;23758;42.640;23.302;2023-06-10T06:22:44;1.92;;;1.83;;
37931;SDS011;23758;42.640;23.302;2023-06-10T06:25:10;2.63;;;2.42;;
37931;SDS011;23758;42.640;23.302;2023-06-10T06:27:35;2.53;;;2.33;;
37931;SDS011;23758;42.640;23.302;2023-06-10T06:30:00;1.98;;;1.88;;
37931;SDS011;23758;42.640;23.302;2023-06-10T06:32:26;2.20;;;2.00;;
37931;SDS011;23758;42.640;23.302;2023-06-10T06:34:52;1.83;;;1.73;;
37931;SDS011;23758;42.640;23.302;2023-06-10T06:37:22;2.10;;;2.00;;
37931;SDS011;23758;42.640;23.302;2023-06-10T06:39:52;2.28;;;2.17;;
37931;SDS011;23758;42.640;23.302;2023-06-10T06:42:18;2.03;;;1.92;;
37931;SDS011;23758;42.640;23.302;2023-06-10T06:44:44;2.03;;;1.92;;
37931;SDS011;23758;42.640;23.302;2023-06-10T06:47:09;1.90;;;1.80;;
37931;SDS011;23758;42.640;23.302;2023-06-10T06:49:35;5.95;;;2.00;;
37931;SDS011;23758;42.640;23.302;2023-06-10T06:52:01;1.85;;;1.75;;
37931;SDS011;23758;42.640;23.302;2023-06-10T06:54:27;1.90;;;1.80;;
37931;SDS011;23758;42.640;23.302;2023-06-10T06:56:52;2.10;;;2.00;;
37931;SDS011;23758;42.640;23.302;2023-06-10T06:59:17;1.95;;;1.85;;
37931;SDS011;23758;42.640;23.302;2023-06-10T07:01:44;1.70;;;1.60;;
37931;SDS011;23758;42.640;23.302;2023-06-10T07:04:10;1.88;;;1.77;;
37931;SDS011;23758;42.640;23.302;2023-06-10T07:06:36;1.80;;;1.70;;
37931;SDS011;23758;42.640;23.302;2023-06-10T07:09:03;2.05;;;1.95;;
37931;SDS011;23758;42.640;23.302;2023-06-10T07:11:29;1.80;;;1.70;;
37931;SDS011;23758;42.640;23.302;2023-06-10T07:13:55;2.00;;;1.90;;
37931;SDS011;23758;42.640;23.302;2023-06-10T07:16:21;2.03;;;1.92;;
37931;SDS011;23758;42.640;23.302;2023-06-10T07:18:46;3.25;;;2.63;;
37931;SDS011;23758;42.640;23.302;2023-06-10T07:21:12;2.10;;;2.00;;
37931;SDS011;23758;42.640;23.302;2023-06-10T07:23:37;2.83;;;2.63;;
37931;SDS011;23758;42.640;23.302;2023-06-10T07:26:03;2.30;;;2.20;;
37931;SDS011;23758;42.640;23.302;2023-06-10T07:28:28;1.90;;;1.80;;
37931;SDS011;23758;42.640;23.302;2023-06-10T07:30:54;1.88;;;1.77;;
37931;SDS011;23758;42.640;23.302;2023-06-10T07:33:19;1.75;;;1.65;;
37931;SDS011;23758;42.640;23.302;2023-06-10T07:35:45;2.58;;;2.25;;
37931;SDS011;23758;42.640;23.302;2023-06-10T07:38:10;1.67;;;1.58;;
37931;SDS011;23758;42.640;23.302;2023-06-10T07:40:36;1.50;;;1.40;;
37931;SDS011;23758;42.640;23.302;2023-06-10T07:43:01;1.70;;;1.60;;
37931;SDS011;23758;42.640;23.302;2023-06-10T07:45:26;1.35;;;1.30;;
37931;SDS011;23758;42.640;23.302;2023-06-10T07:47:52;1.50;;;1.40;;
37931;SDS011;23758;42.640;23.302;2023-06-10T07:50:17;1.67;;;1.52;;
37931;SDS011;23758;42.640;23.302;2023-06-10T07:52:43;1.88;;;1.77;;
37931;SDS011;23758;42.640;23.302;2023-06-10T07:55:08;1.40;;;1.30;;
37931;SDS011;23758;42.640;23.302;2023-06-10T07:57:34;1.50;;;1.40;;
37931;SDS011;23758;42.640;23.302;2023-06-10T08:00:02;1.73;;;1.63;;
37931;SDS011;23758;42.640;23.302;2023-06-10T08:02:29;1.50;;;1.40;;
37931;SDS011;23758;42.640;23.302;2023-06-10T08:04:55;1.55;;;1.45;;
37931;SDS011;23758;42.640;23.302;2023-06-10T08:07:21;1.40;;;1.30;;
37931;SDS011;23758;42.640;23.302;2023-06-10T08:09:47;1.60;;;1.50;;
37931;SDS011;23758;42.640;23.302;2023-06-10T08:12:12;1.65;;;1.55;;
37931;SDS011;23758;42.640;23.302;2023-06-10T08:14:38;1.58;;;1.48;;
37931;SDS011;23758;42.640;23.302;2023-06-10T08:17:04;1.42;;;1.33;;
37931;SDS011;23758;42.640;23.302;2023-06-10T08:19:31;1.77;;;1.67;;
37931;SDS011;23758;42.640;23.302;2023-06-10T08:21:56;1.63;;;1.52;;
37931;SDS011;23758;42.640;23.302;2023-06-10T08:24:22;1.80;;;1.70;;
37931;SDS011;23758;42.640;23.302;2023-06-10T08:26:47;1.30;;;1.20;;
37931;SDS011;23758;42.640;23.302;2023-06-10T08:29:13;1.25;;;1.15;;
37931;SDS011;23758;42.640;23.302;2023-06-10T08:31:42;1.15;;;1.15;;
37931;SDS011;23758;42.640;23.302;2023-06-10T08:34:08;1.33;;;1.25;;
37931;SDS011;23758;42.640;23.302;2023-06-10T08:36:34;1.30;;;1.20;;
37931;SDS011;23758;42.640;23.302;2023-06-10T08:39:00;1.10;;;1.10;;
37931;SDS011;23758;42.640;23.302;2023-06-10T08:41:26;1.17;;;1.17;;
37931;SDS011;23758;42.640;23.302;2023-06-10T08:46:59;1.10;;;1.10;;
37931;SDS011;23758;42.640;23.302;2023-06-10T08:49:26;1.10;;;1.10;;
37931;SDS011;23758;42.640;23.302;2023-06-10T08:51:55;1.05;;;1.05;;
37931;SDS011;23758;42.640;23.302;2023-06-10T08:54:27;1.15;;;1.15;;
37931;SDS011;23758;42.640;23.302;2023-06-10T08:56:55;1.00;;;1.00;;
37931;SDS011;23758;42.640;23.302;2023-06-10T08:59:22;1.17;;;1.17;;
37931;SDS011;23758;42.640;23.302;2023-06-10T09:01:49;0.93;;;0.93;;
37931;SDS011;23758;42.640;23.302;2023-06-10T09:04:15;1.13;;;1.02;;
37931;SDS011;23758;42.640;23.302;2023-06-10T09:06:42;1.00;;;1.00;;
37931;SDS011;23758;42.640;23.302;2023-06-10T09:09:09;1.10;;;1.10;;
37931;SDS011;23758;42.640;23.302;2023-06-10T09:11:35;0.90;;;0.90;;
37931;SDS011;23758;42.640;23.302;2023-06-10T09:14:00;0.90;;;0.90;;
37931;SDS011;23758;42.640;23.302;2023-06-10T09:16:26;0.90;;;0.90;;
37931;SDS011;23758;42.640;23.302;2023-06-10T09:18:51;1.25;;;1.17;;
37931;SDS011;23758;42.640;23.302;2023-06-10T09:21:23;1.02;;;1.02;;
37931;SDS011;23758;42.640;23.302;2023-06-10T09:23:49;1.10;;;1.05;;
37931;SDS011;23758;42.640;23.302;2023-06-10T09:26:15;0.90;;;0.90;;
37931;SDS011;23758;42.640;23.302;2023-06-10T09:28:44;0.90;;;0.90;;
37931;SDS011;23758;42.640;23.302;2023-06-10T09:31:10;2.38;;;1.05;;
37931;SDS011;23758;42.640;23.302;2023-06-10T09:33:38;1.00;;;1.00;;
37931;SDS011;23758;42.640;23.302;2023-06-10T09:36:06;1.20;;;1.10;;
37931;SDS011;23758;42.640;23.302;2023-06-10T09:38:32;1.02;;;1.02;;
37931;SDS011;23758;42.640;23.302;2023-06-10T09:40:59;0.90;;;0.90;;
37931;SDS011;23758;42.640;23.302;2023-06-10T09:43:45;1.10;;;1.00;;
37931;SDS011;23758;42.640;23.302;2023-06-10T09:46:14;0.90;;;0.90;;
37931;SDS011;23758;42.640;23.302;2023-06-10T09:48:42;1.00;;;1.00;;
37931;SDS011;23758;42.640;23.302;2023-06-10T09:51:09;1.23;;;1.13;;
37931;SDS011;23758;42.640;23.302;2023-06-10T09:53:35;1.00;;;1.00;;
37931;SDS011;23758;42.640;23.302;2023-06-10T09:56:00;0.98;;;0.98;;
37931;SDS011;23758;42.640;23.302;2023-06-10T09:58:36;1.10;;;1.10;;
37931;SDS011;23758;42.640;23.302;2023-06-10T10:03:33;1.30;;;1.20;;
37931;SDS011;23758;42.640;23.302;2023-06-10T10:05:59;1.40;;;1.30;;
37931;SDS011;23758;42.640;23.302;2023-06-10T10:08:25;1.30;;;1.20;;
37931;SDS011;23758;42.640;23.302;2023-06-10T10:10:51;1.52;;;1.42;;
37931;SDS011;23758;42.640;23.302;2023-06-10T10:13:16;1.50;;;1.40;;
37931;SDS011;23758;42.640;23.302;2023-06-10T10:15:42;1.60;;;1.50;;
37931;SDS011;23758;42.640;23.302;2023-06-10T10:18:10;1.17;;;1.17;;
37931;SDS011;23758;42.640;23.302;2023-06-10T10:20:41;1.50;;;1.40;;
37931;SDS011;23758;42.640;23.302;2023-06-10T10:23:11;1.20;;;1.20;;
37931;SDS011;23758;42.640;23.302;2023-06-10T10:25:40;1.45;;;1.35;;
37931;SDS011;23758;42.640;23.302;2023-06-10T10:28:10;1.40;;;1.30;;
37931;SDS011;23758;42.640;23.302;2023-06-10T10:30:44;2.15;;;1.30;;
37931;SDS011;23758;42.640;23.302;2023-06-10T10:33:18;1.40;;;1.30;;
37931;SDS011;23758;42.640;23.302;2023-06-10T10:35:47;1.40;;;1.30;;
37931;SDS011;23758;42.640;23.302;2023-06-10T10:38:12;1.42;;;1.33;;
37931;SDS011;23758;42.640;23.302;2023-06-10T10:40:38;1.40;;;1.30;;
37931;SDS011;23758;42.640;23.302;2023-06-10T10:43:04;1.30;;;1.20;;
37931;SDS011;23758;42.640;23.302;2023-06-10T10:45:30;1.48;;;1.38;;
37931;SDS011;23758;42.640;23.302;2023-06-10T10:47:58;1.40;;;1.30;;
37931;SDS011;23758;42.640;23.302;2023-06-10T10:50:30;1.45;;;1.35;;
37931;SDS011;23758;42.640;23.302;2023-06-10T10:52:58;1.40;;;1.30;;
37931;SDS011;23758;42.640;23.302;2023-06-10T10:55:25;1.40;;;1.30;;
37931;SDS011;23758;42.640;23.302;2023-06-10T10:58:04;1.50;;;1.40;;
37931;SDS011;23758;42.640;23.302;2023-06-10T11:00:32;1.42;;;1.33;;
37931;SDS011;23758;42.640;23.302;2023-06-10T11:03:05;1.20;;;1.20;;
37931;SDS011;23758;42.640;23.302;2023-06-10T11:05:41;1.20;;;1.20;;
37931;SDS011;23758;42.640;23.302;2023-06-10T11:08:10;1.45;;;1.35;;
37931;SDS011;23758;42.640;23.302;2023-06-10T11:10:50;1.50;;;1.40;;
37931;SDS011;23758;42.640;23.302;2023-06-10T11:13:18;1.55;;;1.45;;
37931;SDS011;23758;42.640;23.302;2023-06-10T11:15:46;1.10;;;1.10;;
37931;SDS011;23758;42.640;23.302;2023-06-10T11:29:04;1.10;;;1.10;;
37931;SDS011;23758;42.640;23.302;2023-06-10T11:31:35;1.45;;;1.35;;
37931;SDS011;23758;42.640;23.302;2023-06-10T11:34:05;1.30;;;1.20;;
37931;SDS011;23758;42.640;23.302;2023-06-10T11:36:32;1.00;;;1.00;;
37931;SDS011;23758;42.640;23.302;2023-06-10T11:38:59;1.20;;;1.10;;
37931;SDS011;23758;42.640;23.302;2023-06-10T11:41:26;1.25;;;1.17;;
37931;SDS011;23758;42.640;23.302;2023-06-10T11:43:52;1.13;;;1.10;;
37931;SDS011;23758;42.640;23.302;2023-06-10T11:46:19;1.58;;;1.48;;
37931;SDS011;23758;42.640;23.302;2023-06-10T11:48:48;1.00;;;1.00;;
37931;SDS011;23758;42.640;23.302;2023-06-10T11:51:15;0.90;;;0.90;;
37931;SDS011;23758;42.640;23.302;2023-06-10T11:53:40;0.85;;;0.85;;
37931;SDS011;23758;42.640;23.302;2023-06-10T11:56:05;1.08;;;1.08;;
37931;SDS011;23758;42.640;23.302;2023-06-10T11:58:31;3.90;;;1.15;;
37931;SDS011;23758;42.640;23.302;2023-06-10T12:00:56;0.93;;;0.93;;
37931;SDS011;23758;42.640;23.302;2023-06-10T12:03:23;1.00;;;1.00;;
37931;SDS011;23758;42.640;23.302;2023-06-10T12:05:55;2.03;;;1.30;;
37931;SDS011;23758;42.640;23.302;2023-06-10T12:08:21;1.20;;;1.15;;
37931;SDS011;23758;42.640;23.302;2023-06-10T12:10:46;6.95;;;1.30;;
37931;SDS011;23758;42.640;23.302;2023-06-10T12:13:12;1.13;;;1.05;;
37931;SDS011;23758;42.640;23.302;2023-06-10T12:15:37;1.20;;;1.10;;
37931;SDS011;23758;42.640;23.302;2023-06-10T12:18:03;1.40;;;1.30;;
37931;SDS011;23758;42.640;23.302;2023-06-10T12:20:29;1.30;;;1.20;;
37931;SDS011;23758;42.640;23.302;2023-06-10T12:23:00;1.10;;;1.10;;
37931;SDS011;23758;42.640;23.302;2023-06-10T12:25:27;1.08;;;1.08;;
37931;SDS011;23758;42.640;23.302;2023-06-10T12:27:54;1.50;;;1.40;;
37931;SDS011;23758;42.640;23.302;2023-06-10T12:30:21;1.25;;;1.20;;
37931;SDS011;23758;42.640;23.302;2023-06-10T12:32:48;1.58;;;1.48;;
37931;SDS011;23758;42.640;23.302;2023-06-10T12:35:17;1.67;;;1.58;;
37931;SDS011;23758;42.640;23.302;2023-06-10T12:37:58;1.45;;;1.35;;
37931;SDS011;23758;42.640;23.302;2023-06-10T12:40:32;1.40;;;1.30;;
37931;SDS011;23758;42.640;23.302;2023-06-10T12:42:58;1.52;;;1.42;;
37931;SDS011;23758;42.640;23.302;2023-06-10T12:45:31;1.50;;;1.40;;
37931;SDS011;23758;42.640;23.302;2023-06-10T12:48:08;1.40;;;1.30;;
37931;SDS011;23758;42.640;23.302;2023-06-10T12:50:38;1.20;;;1.20;;
37931;SDS011;23758;42.640;23.302;2023-06-10T12:53:04;1.33;;;1.25;;
37931;SDS011;23758;42.640;23.302;2023-06-10T12:55:30;1.30;;;1.20;;
37931;SDS011;23758;42.640;23.302;2023-06-10T12:57:56;1.33;;;1.23;;
37931;SDS011;23758;42.640;23.302;2023-06-10T13:00:22;1.40;;;1.30;;
37931;SDS011;23758;42.640;23.302;2023-06-10T13:02:50;1.35;;;1.25;;
37931;SDS011;23758;42.640;23.302;2023-06-10T13:05:19;1.60;;;1.50;;
37931;SDS011;23758;42.640;23.302;2023-06-10T13:07:45;1.40;;;1.30;;
37931;SDS011;23758;42.640;23.302;2023-06-10T13:10:15;1.42;;;1.33;;
37931;SDS011;23758;42.640;23.302;2023-06-10T13:12:42;1.90;;;1.80;;
37931;SDS011;23758;42.640;23.302;2023-06-10T13:15:08;1.40;;;1.33;;
37931;SDS011;23758;42.640;23.302;2023-06-10T13:17:33;1.40;;;1.30;;
37931;SDS011;23758;42.640;23.302;2023-06-10T13:20:00;1.38;;;1.27;;
37931;SDS011;23758;42.640;23.302;2023-06-10T13:22:30;1.40;;;1.30;;
37931;SDS011;23758;42.640;23.302;2023-06-10T13:24:57;1.60;;;1.50;;
37931;SDS011;23758;42.640;23.302;2023-06-10T13:27:26;1.90;;;1.80;;
37931;SDS011;23758;42.640;23.302;2023-06-10T13:29:52;1.58;;;1.48;;
37931;SDS011;23758;42.640;23.302;2023-06-10T13:32:17;1.70;;;1.60;;
37931;SDS011;23758;42.640;23.302;2023-06-10T13:34:43;1.67;;;1.58;;
37931;SDS011;23758;42.640;23.302;2023-06-10T13:37:08;2.00;;;1.83;;
37931;SDS011;23758;42.640;23.302;2023-06-10T13:39:34;1.90;;;1.80;;
37931;SDS011;23758;42.640;23.302;2023-06-10T13:41:59;2.10;;;2.00;;
37931;SDS011;23758;42.640;23.302;2023-06-10T13:44:25;2.10;;;2.00;;
37931;SDS011;23758;42.640;23.302;2023-06-10T13:46:50;1.80;;;1.70;;
37931;SDS011;23758;42.640;23.302;2023-06-10T13:49:16;1.70;;;1.60;;
37931;SDS011;23758;42.640;23.302;2023-06-10T13:51:41;1.80;;;1.70;;
37931;SDS011;23758;42.640;23.302;2023-06-10T13:54:07;1.90;;;1.80;;
37931;SDS011;23758;42.640;23.302;2023-06-10T13:56:32;1.73;;;1.63;;
37931;SDS011;23758;42.640;23.302;2023-06-10T13:59:02;1.75;;;1.65;;
37931;SDS011;23758;42.640;23.302;2023-06-10T14:01:28;1.60;;;1.50;;
37931;SDS011;23758;42.640;23.302;2023-06-10T14:03:54;1.85;;;1.73;;
37931;SDS011;23758;42.640;23.302;2023-06-10T14:06:19;1.92;;;1.83;;
37931;SDS011;23758;42.640;23.302;2023-06-10T14:08:45;2.70;;;2.50;;
37931;SDS011;23758;42.640;23.302;2023-06-10T14:11:10;2.00;;;1.90;;
37931;SDS011;23758;42.640;23.302;2023-06-10T14:13:36;2.30;;;2.20;;
37931;SDS011;23758;42.640;23.302;2023-06-10T14:16:03;2.55;;;2.35;;
37931;SDS011;23758;42.640;23.302;2023-06-10T14:18:29;2.40;;;2.30;;
37931;SDS011;23758;42.640;23.302;2023-06-10T14:20:55;2.20;;;2.10;;
37931;SDS011;23758;42.640;23.302;2023-06-10T14:23:20;1.92;;;1.83;;
37931;SDS011;23758;42.640;23.302;2023-06-10T14:25:46;1.80;;;1.70;;
37931;SDS011;23758;42.640;23.302;2023-06-10T14:28:11;3.88;;;2.35;;
37931;SDS011;23758;42.640;23.302;2023-06-10T14:30:37;2.15;;;2.05;;
37931;SDS011;23758;42.640;23.302;2023-06-10T14:33:03;2.15;;;2.05;;
37931;SDS011;23758;42.640;23.302;2023-06-10T14:35:29;2.38;;;2.17;;
37931;SDS011;23758;42.640;23.302;2023-06-10T14:37:54;1.70;;;1.60;;
37931;SDS011;23758;42.640;23.302;2023-06-10T14:40:20;2.13;;;2.03;;
37931;SDS011;23758;42.640;23.302;2023-06-10T14:42:47;1.77;;;1.67;;
37931;SDS011;23758;42.640;23.302;2023-06-10T14:45:13;1.60;;;1.50;;
37931;SDS011;23758;42.640;23.302;2023-06-10T14:47:39;1.70;;;1.60;;
37931;SDS011;23758;42.640;23.302;2023-06-10T14:50:05;2.05;;;1.90;;